Time;durP1;ratioP1;P1;durP2;ratioP2;P2;SDS_P1;SDS_P2;PMS_P1;PMS_P2;Temp;Humidity;BMP_temperature;BMP_pressure;BME280_temperature;BME280_humidity;BME280_pressure;Samples;Min_cycle;Max_cycle;Signal;HPM_P1;HPM_P2
2022/05/04 00:00:07;;;;;;;18.67;11.07;;;10.00;99.90;;;;;;5055649;28;20206;-90
2022/05/04 00:02:34;;;;;;;16.90;10.63;;;9.90;99.90;;;;;;5055189;28;20689;-91
2022/05/04 00:05:00;;;;;;;19.10;11.60;;;9.90;99.90;;;;;;5053697;28;20286;-89
2022/05/04 00:07:27;;;;;;;17.70;10.40;;;9.90;99.90;;;;;;5055496;28;20203;-90
2022/05/04 00:09:57;;;;;;;16.23;9.97;;;9.90;99.90;;;;;;5055166;28;20210;-89
2022/05/04 00:12:24;;;;;;;18.20;10.80;;;9.90;99.90;;;;;;5055105;28;20204;-90
2022/05/04 00:14:51;;;;;;;16.23;10.83;;;9.90;99.90;;;;;;5055081;28;20206;-89
2022/05/04 00:17:17;;;;;;;16.43;10.67;;;10.00;99.90;;;;;;5055117;28;20226;-90
2022/05/04 00:19:44;;;;;;;15.17;10.70;;;9.90;99.90;;;;;;5055002;28;20221;-90
2022/05/04 00:22:11;;;;;;;18.07;11.20;;;9.90;99.90;;;;;;5054592;28;20198;-90
2022/05/04 00:24:38;;;;;;;16.47;11.00;;;9.90;99.90;;;;;;5053531;28;20203;-90
2022/05/04 00:27:07;;;;;;;22.63;11.13;;;9.90;99.90;;;;;;5054908;28;20213;-89
2022/05/04 00:29:33;;;;;;;19.30;11.27;;;9.80;99.90;;;;;;5055048;28;20207;-90
2022/05/04 00:32:00;;;;;;;16.00;11.23;;;9.70;99.90;;;;;;5056349;28;20218;-91
2022/05/04 00:34:27;;;;;;;19.53;11.17;;;9.70;99.90;;;;;;5060367;28;20204;-91
2022/05/04 00:36:54;;;;;;;21.83;11.73;;;9.70;99.90;;;;;;5059222;28;20226;-90
2022/05/04 00:39:21;;;;;;;19.77;11.43;;;9.70;99.90;;;;;;5054733;28;20213;-89
2022/05/04 00:41:48;;;;;;;21.67;11.80;;;9.60;99.90;;;;;;5054464;28;20205;-90
2022/05/04 00:44:16;;;;;;;19.73;11.23;;;9.60;99.90;;;;;;5054605;28;20190;-91
2022/05/04 00:46:43;;;;;;;17.63;11.23;;;9.50;99.90;;;;;;5054711;28;20210;-90
2022/05/04 00:49:09;;;;;;;16.50;11.47;;;9.60;99.90;;;;;;5053848;28;20666;-89
2022/05/04 00:51:37;;;;;;;20.97;12.27;;;9.60;99.90;;;;;;5054593;28;20208;-89
2022/05/04 00:54:04;;;;;;;21.00;12.03;;;9.70;99.90;;;;;;5054370;28;20186;-90
2022/05/04 00:56:31;;;;;;;21.73;11.83;;;9.50;99.90;;;;;;5054166;28;20213;-89
2022/05/04 00:58:57;;;;;;;20.23;12.23;;;9.50;99.90;;;;;;5054109;28;20229;-91
2022/05/04 01:01:28;;;;;;;15.37;12.20;;;9.30;99.90;;;;;;5054298;28;20211;-90
2022/05/04 01:03:56;;;;;;;18.47;12.73;;;9.20;99.90;;;;;;5054730;28;20198;-90
2022/05/04 01:06:24;;;;;;;19.37;12.30;;;9.30;99.90;;;;;;5054070;28;20199;-89
2022/05/04 01:08:52;;;;;;;17.67;12.40;;;9.20;99.90;;;;;;5053975;28;20206;-88
2022/05/04 01:11:21;;;;;;;21.83;13.60;;;9.20;99.90;;;;;;5054015;28;20437;-91
2022/05/04 01:13:59;;;;;;;21.83;12.77;;;9.20;99.90;;;;;;5054467;28;20328;-89
2022/05/04 01:16:28;;;;;;;18.03;12.27;;;9.20;99.90;;;;;;5053877;28;20260;-89
2022/05/04 01:18:55;;;;;;;18.67;11.50;;;9.00;99.90;;;;;;5053964;28;20245;-90
2022/05/04 01:21:22;;;;;;;19.47;12.30;;;9.10;99.90;;;;;;5053882;28;20210;-90
2022/05/04 01:23:51;;;;;;;18.37;11.30;;;8.90;99.90;;;;;;5054284;28;20567;-90
2022/05/04 01:26:18;;;;;;;19.37;11.97;;;9.10;99.90;;;;;;5053906;28;20205;-89
2022/05/04 01:28:44;;;;;;;18.50;11.43;;;9.00;99.90;;;;;;5053925;28;20242;-90
2022/05/04 01:31:11;;;;;;;17.43;11.90;;;9.00;99.90;;;;;;5053832;28;20206;-89
2022/05/04 01:33:39;;;;;;;18.63;10.83;;;9.00;99.90;;;;;;5053519;28;20202;-90
2022/05/04 01:36:06;;;;;;;20.63;12.85;;;8.90;99.90;;;;;;5053532;28;20443;-89
2022/05/04 01:38:33;;;;;;;20.87;12.30;;;8.90;99.90;;;;;;5054170;28;20222;-89
2022/05/04 01:41:02;;;;;;;19.90;11.50;;;8.80;99.90;;;;;;5054001;28;20559;-89
2022/05/04 01:43:29;;;;;;;17.70;11.17;;;8.70;99.90;;;;;;5053508;28;20214;-91
2022/05/04 01:45:57;;;;;;;19.53;12.03;;;8.60;99.90;;;;;;5054645;28;20199;-90
2022/05/04 01:48:24;;;;;;;15.17;10.93;;;8.50;99.90;;;;;;5056631;28;20204;-91
2022/05/04 01:50:51;;;;;;;16.50;10.00;;;8.50;99.90;;;;;;5059134;28;20217;-91
2022/05/04 01:53:18;;;;;;;16.83;10.50;;;8.60;99.90;;;;;;5058928;28;20712;-90
2022/05/04 01:55:46;;;;;;;19.37;10.37;;;8.60;99.90;;;;;;5054039;28;20210;-91
2022/05/04 01:58:14;;;;;;;12.50;9.67;;;8.70;99.90;;;;;;5053666;28;20230;-90
2022/05/04 02:00:41;;;;;;;19.58;12.68;;;8.70;99.90;;;;;;5053207;28;20449;-89
2022/05/04 02:03:08;;;;;;;19.37;10.93;;;8.70;99.90;;;;;;5053745;28;20653;-90
2022/05/04 02:05:35;;;;;;;19.07;11.47;;;8.70;99.90;;;;;;5053786;28;20210;-90
2022/05/04 02:08:02;;;;;;;19.17;11.80;;;8.70;99.90;;;;;;5053517;28;20289;-90
2022/05/04 02:10:29;;;;;;;21.37;11.73;;;8.70;99.90;;;;;;5053613;28;20214;-91
2022/05/04 02:12:55;;;;;;;18.40;11.00;;;8.70;99.90;;;;;;5053541;28;20216;-90
2022/05/04 02:15:24;;;;;;;20.43;11.60;;;8.80;99.90;;;;;;5052971;28;20668;-89
2022/05/04 02:17:50;;;;;;;22.47;12.43;;;8.80;99.90;;;;;;5053359;28;20218;-90
2022/05/04 02:20:17;;;;;;;19.17;12.10;;;8.70;99.90;;;;;;5053127;28;20216;-90
2022/05/04 02:22:44;;;;;;;20.77;11.73;;;8.60;99.90;;;;;;5053555;28;20210;-90
2022/05/04 02:25:11;;;;;;;21.33;12.07;;;8.70;99.90;;;;;;5053392;28;20233;-90
2022/05/04 02:27:38;;;;;;;19.50;11.70;;;8.50;99.90;;;;;;5053850;28;20210;-90
2022/05/04 02:30:06;;;;;;;18.33;12.17;;;8.40;99.90;;;;;;5053399;28;20214;-90
2022/05/04 02:32:34;;;;;;;21.87;12.63;;;8.40;99.90;;;;;;5053612;28;20201;-90
2022/05/04 02:37:57;;;;;;;21.27;12.93;;;8.50;99.90;;;;;;5053031;28;20233;-91
2022/05/04 02:40:26;;;;;;;20.03;12.53;;;8.60;99.90;;;;;;5053604;28;20574;-90
2022/05/04 02:42:53;;;;;;;18.13;13.07;;;8.60;99.90;;;;;;5053377;28;20202;-90
2022/05/04 02:45:20;;;;;;;24.37;13.60;;;8.50;99.90;;;;;;5054780;28;20281;-90
2022/05/04 02:47:48;;;;;;;17.77;12.27;;;8.50;99.90;;;;;;5056782;28;20194;-90
2022/05/04 02:50:15;;;;;;;24.42;15.57;;;8.50;99.90;;;;;;5056399;28;20445;-89
2022/05/04 02:52:42;;;;;;;19.40;13.73;;;8.60;99.90;;;;;;5056891;28;20280;-90
2022/05/04 02:55:09;;;;;;;17.47;13.57;;;8.60;99.90;;;;;;5056712;28;20205;-90
2022/05/04 02:57:36;;;;;;;20.27;13.53;;;8.70;99.90;;;;;;5056454;28;20218;-90
2022/05/04 03:00:03;;;;;;;21.50;14.17;;;8.60;99.90;;;;;;5056499;28;20285;-90
2022/05/04 03:02:30;;;;;;;20.50;13.70;;;8.70;99.90;;;;;;5056551;28;20257;-90
2022/05/04 03:05:00;;;;;;;26.03;14.47;;;8.60;99.90;;;;;;5056335;28;20230;-90
2022/05/04 03:07:28;;;;;;;26.93;15.60;;;8.60;99.90;;;;;;5056614;28;20213;-90
2022/05/04 03:09:54;;;;;;;25.43;15.30;;;8.50;99.90;;;;;;5056210;28;20206;-90
2022/05/04 03:12:21;;;;;;;24.60;16.27;;;8.60;99.90;;;;;;5056810;28;20203;-89
2022/05/04 03:14:48;;;;;;;25.07;16.47;;;8.60;99.90;;;;;;5056008;28;20190;-89
2022/05/04 03:17:16;;;;;;;25.20;15.23;;;8.60;99.90;;;;;;5056436;28;20206;-89
2022/05/04 03:19:42;;;;;;;25.17;14.23;;;8.50;99.90;;;;;;5056506;28;20210;-89
2022/05/04 03:22:11;;;;;;;22.63;16.03;;;8.60;99.90;;;;;;5056022;28;20206;-89
2022/05/04 03:24:38;;;;;;;21.37;15.57;;;8.60;99.90;;;;;;5055992;28;20217;-89
2022/05/04 03:27:07;;;;;;;27.83;15.63;;;8.70;99.90;;;;;;5056060;28;20237;-89
2022/05/04 03:29:34;;;;;;;27.83;15.63;;;8.80;99.90;;;;;;5055368;28;20238;-88
2022/05/04 03:32:03;;;;;;;24.23;15.40;;;8.90;99.90;;;;;;5056164;28;20337;-88
2022/05/04 03:34:30;;;;;;;27.53;15.30;;;8.90;99.90;;;;;;5056095;28;20206;-89
2022/05/04 03:36:58;;;;;;;22.47;14.83;;;8.90;99.90;;;;;;5056015;28;20678;-88
2022/05/04 03:39:26;;;;;;;26.48;19.60;;;8.80;99.90;;;;;;5058565;28;20509;-88
2022/05/04 03:41:53;;;;;;;27.27;17.10;;;8.70;99.90;;;;;;5059905;28;20207;-88
2022/05/04 03:44:20;;;;;;;24.40;16.17;;;8.40;99.90;;;;;;5056344;28;20202;-89
2022/05/04 03:46:48;;;;;;;24.47;15.07;;;8.30;99.90;;;;;;5055389;28;20552;-88
2022/05/04 03:49:16;;;;;;;21.93;15.77;;;8.40;99.90;;;;;;5055590;28;20202;-88
2022/05/04 03:51:44;;;;;;;27.47;16.73;;;8.40;99.90;;;;;;5055694;28;20724;-90
2022/05/04 03:54:11;;;;;;;24.57;16.07;;;8.50;99.90;;;;;;5048246;28;20212;-88
2022/05/04 03:56:40;;;;;;;25.87;16.03;;;8.40;99.90;;;;;;5052614;28;20217;-88
2022/05/04 03:59:08;;;;;;;29.30;17.37;;;8.40;99.90;;;;;;5052344;28;20226;-88
2022/05/04 04:01:36;;;;;;;26.63;16.53;;;8.40;99.90;;;;;;5054477;28;20658;-89
2022/05/04 04:04:03;;;;;;;28.27;16.63;;;8.50;99.90;;;;;;5055309;28;20190;-88
2022/05/04 04:06:32;;;;;;;30.80;16.97;;;8.50;99.90;;;;;;5055388;28;20207;-88
2022/05/04 04:08:59;;;;;;;26.87;17.07;;;8.50;99.90;;;;;;5054534;28;20658;-88
2022/05/04 04:11:26;;;;;;;29.13;17.20;;;8.40;99.90;;;;;;5054591;28;20722;-87
2022/05/04 04:13:59;;;;;;;22.50;15.40;;;8.40;99.90;;;;;;5055406;28;20207;-89
2022/05/04 04:16:26;;;;;;;27.07;15.83;;;8.30;99.90;;;;;;5055066;28;20678;-88
2022/05/04 04:18:53;;;;;;;26.47;15.97;;;8.00;99.90;;;;;;5054701;28;20218;-89
2022/05/04 04:24:04;;;;;;;31.40;16.43;;;8.10;99.90;;;;;;5054468;28;20206;-88
2022/05/04 04:26:32;;;;;;;26.93;16.33;;;8.10;99.90;;;;;;5054370;28;20217;-89
2022/05/04 04:29:00;;;;;;;31.80;20.20;;;8.10;99.90;;;;;;5053555;28;20927;-88
2022/05/04 04:31:27;;;;;;;24.43;17.17;;;7.90;99.90;;;;;;5054439;28;20662;-88
2022/05/04 04:33:53;;;;;;;31.23;16.70;;;7.90;99.90;;;;;;5054377;28;20284;-88
2022/05/04 04:36:20;;;;;;;23.97;16.20;;;7.90;99.90;;;;;;5054600;28;20206;-89
2022/05/04 04:38:47;;;;;;;29.33;17.50;;;7.80;99.90;;;;;;5054354;28;20700;-88
2022/05/04 04:41:14;;;;;;;27.17;17.77;;;7.80;99.90;;;;;;5053694;28;20692;-88
2022/05/04 04:43:41;;;;;;;28.60;17.77;;;7.90;99.90;;;;;;5054514;28;20225;-88
2022/05/04 04:46:09;;;;;;;27.07;16.73;;;7.90;99.90;;;;;;5054299;28;20206;-88
2022/05/04 04:48:36;;;;;;;28.87;17.23;;;7.70;99.90;;;;;;5054570;28;20206;-90
2022/05/04 04:51:03;;;;;;;28.37;17.37;;;7.70;99.90;;;;;;5054065;28;20202;-89
2022/05/04 04:53:29;;;;;;;29.15;21.98;;;7.70;99.90;;;;;;5053629;28;20932;-89
2022/05/04 04:55:56;;;;;;;26.03;18.23;;;7.80;99.90;;;;;;5054347;28;20209;-88
2022/05/04 04:58:23;;;;;;;27.03;17.13;;;8.00;99.90;;;;;;5054107;28;20603;-89
2022/05/04 05:00:51;;;;;;;26.33;18.50;;;7.80;99.90;;;;;;5053178;28;20213;-90
2022/05/04 05:03:19;;;;;;;28.47;18.33;;;7.80;99.90;;;;;;5057953;28;20214;-89
2022/05/04 05:05:46;;;;;;;28.87;17.87;;;7.90;99.90;;;;;;5054922;28;20213;-89
2022/05/04 05:08:14;;;;;;;31.63;17.67;;;7.80;99.90;;;;;;5053392;28;20401;-89
2022/05/04 05:10:41;;;;;;;28.63;18.97;;;7.70;99.90;;;;;;5053713;28;20208;-88
2022/05/04 05:13:09;;;;;;;29.00;18.47;;;7.60;99.90;;;;;;5054230;28;20198;-90
2022/05/04 05:18:23;;;;;;;35.30;18.53;;;7.70;99.90;;;;;;5053716;28;20345;-89
2022/05/04 05:20:50;;;;;;;26.50;18.43;;;7.60;99.90;;;;;;5053904;28;20211;-89
2022/05/04 05:23:17;;;;;;;29.13;18.93;;;7.70;99.90;;;;;;5054074;28;20194;-90
2022/05/04 05:25:43;;;;;;;31.57;20.03;;;7.80;99.90;;;;;;5053865;28;20202;-88
2022/05/04 05:28:11;;;;;;;30.13;18.90;;;7.80;99.90;;;;;;5053943;28;20193;-90
2022/05/04 05:30:38;;;;;;;36.37;19.87;;;7.80;99.90;;;;;;5053717;28;20233;-89
2022/05/04 05:33:05;;;;;;;32.60;20.27;;;7.80;99.90;;;;;;5053797;28;20229;-90
2022/05/04 05:35:33;;;;;;;34.73;20.37;;;7.80;99.90;;;;;;5053403;28;20206;-89
2022/05/04 05:38:00;;;;;;;30.83;19.80;;;7.90;99.90;;;;;;5054183;28;20205;-91
2022/05/04 05:40:27;;;;;;;38.73;20.13;;;8.00;99.90;;;;;;5053463;28;20290;-90
2022/05/04 05:42:54;;;;;;;33.17;25.38;;;8.10;99.90;;;;;;5052656;28;20570;-88
2022/05/04 05:45:22;;;;;;;34.10;21.43;;;8.30;99.90;;;;;;5053261;28;20198;-89
2022/05/04 05:47:49;;;;;;;34.70;21.30;;;8.30;99.90;;;;;;5053618;28;20190;-90
2022/05/04 05:50:17;;;;;;;37.17;20.70;;;8.30;99.90;;;;;;5053231;28;20210;-88
2022/05/04 05:52:45;;;;;;;33.93;19.80;;;8.40;99.90;;;;;;5053207;28;20397;-90
2022/05/04 05:55:12;;;;;;;33.70;21.23;;;8.30;99.90;;;;;;5053291;28;20206;-89
2022/05/04 05:57:39;;;;;;;31.60;20.60;;;8.30;99.90;;;;;;5053577;28;20220;-90
2022/05/04 06:00:07;;;;;;;34.23;20.20;;;8.40;99.90;;;;;;5053264;28;20222;-90
2022/05/04 06:02:34;;;;;;;34.17;19.33;;;8.40;99.90;;;;;;5053123;28;20563;-90
2022/05/04 06:05:01;;;;;;;35.63;20.57;;;8.40;99.90;;;;;;5053220;28;20653;-89
2022/05/04 06:07:28;;;;;;;33.47;19.67;;;8.50;99.90;;;;;;5051629;28;20209;-89
2022/05/04 06:09:56;;;;;;;32.00;19.23;;;8.60;99.90;;;;;;5053188;28;20217;-90
2022/05/04 06:12:23;;;;;;;30.97;20.33;;;8.70;99.90;;;;;;5053085;28;20191;-90
2022/05/04 06:14:50;;;;;;;33.90;19.30;;;8.60;99.90;;;;;;5053211;28;20210;-88
2022/05/04 06:17:17;;;;;;;32.60;19.83;;;8.60;99.90;;;;;;5053085;28;20669;-89
2022/05/04 06:19:43;;;;;;;31.97;19.53;;;8.70;99.90;;;;;;5054030;28;20234;-88
2022/05/04 06:22:10;;;;;;;30.57;18.33;;;8.70;99.90;;;;;;5056540;28;20199;-88
2022/05/04 06:24:37;;;;;;;31.73;19.33;;;8.90;99.90;;;;;;5056844;28;20206;-88
2022/05/04 06:27:06;;;;;;;26.47;17.63;;;9.00;99.90;;;;;;5056663;28;20213;-88
2022/05/04 06:35:04;;;;;;;28.50;17.73;;;9.40;99.90;;;;;;5055776;28;20198;-89
2022/05/04 06:37:32;;;;;;;29.20;17.00;;;9.40;99.90;;;;;;5054617;28;20226;-89
2022/05/04 06:39:59;;;;;;;27.27;17.10;;;9.40;99.90;;;;;;5056493;28;20237;-88
2022/05/04 06:42:27;;;;;;;26.50;15.93;;;9.50;99.90;;;;;;5056470;28;20198;-85
2022/05/04 06:44:54;;;;;;;25.73;12.60;;;9.70;99.90;;;;;;5056662;28;20191;-85
2022/05/04 06:47:21;;;;;;;17.80;12.10;;;9.80;99.90;;;;;;5056611;28;20195;-87
2022/05/04 06:49:48;;;;;;;21.67;12.43;;;9.90;99.90;;;;;;5056621;28;20210;-86
2022/05/04 06:52:14;;;;;;;23.67;12.27;;;10.00;99.90;;;;;;5056079;28;20226;-86
2022/05/04 06:54:42;;;;;;;20.60;11.43;;;10.00;99.90;;;;;;5056165;28;20202;-86
2022/05/04 06:57:09;;;;;;;24.90;14.65;;;10.20;99.90;;;;;;5055488;28;20436;-86
2022/05/04 06:59:38;;;;;;;22.23;12.10;;;10.30;99.90;;;;;;5056327;28;20230;-86
2022/05/04 07:02:05;;;;;;;16.67;10.93;;;10.40;99.90;;;;;;5056425;28;20207;-87
2022/05/04 07:04:32;;;;;;;20.30;10.63;;;10.30;99.90;;;;;;5056191;28;20214;-87
2022/05/04 07:07:00;;;;;;;16.53;9.07;;;10.40;99.90;;;;;;5056174;28;20617;-86
2022/05/04 07:09:27;;;;;;;17.87;9.50;;;10.40;99.90;;;;;;5056638;28;20206;-86
2022/05/04 07:11:54;;;;;;;22.03;11.53;;;10.50;99.90;;;;;;5056194;28;20207;-86
2022/05/04 07:14:21;;;;;;;21.67;11.63;;;10.70;99.90;;;;;;5056145;28;20680;-85
2022/05/04 07:16:50;;;;;;;14.20;9.40;;;10.90;99.90;;;;;;5055980;28;20216;-86
2022/05/04 07:19:17;;;;;;;18.40;10.00;;;10.70;99.90;;;;;;5055644;28;20229;-86
2022/05/04 07:21:45;;;;;;;17.33;11.70;;;10.80;99.90;;;;;;5055585;28;20438;-85
2022/05/04 07:24:12;;;;;;;17.83;9.53;;;11.10;99.90;;;;;;5054989;28;20285;-87
2022/05/04 07:26:39;;;;;;;19.20;9.43;;;11.40;99.90;;;;;;5055864;28;20308;-86
2022/05/04 07:29:05;;;;;;;18.37;10.57;;;11.30;99.90;;;;;;5055029;28;20209;-86
2022/05/04 07:31:32;;;;;;;16.87;10.70;;;11.30;99.90;;;;;;5055605;28;20666;-86
2022/05/04 07:34:00;;;;;;;24.23;12.83;;;11.40;99.90;;;;;;5055978;28;20203;-85
2022/05/04 07:36:27;;;;;;;17.37;10.57;;;11.60;99.90;;;;;;5055356;28;20210;-86
2022/05/04 07:38:54;;;;;;;19.07;10.93;;;11.70;99.90;;;;;;5055636;28;20203;-87
2022/05/04 07:44:05;;;;;;;24.40;11.80;;;11.80;99.90;;;;;;5055107;28;20209;-87
2022/05/04 07:46:33;;;;;;;19.23;12.48;;;12.10;99.90;;;;;;5055246;28;20441;-86
2022/05/04 07:49:01;;;;;;;17.40;11.37;;;12.20;99.90;;;;;;5055195;28;20227;-86
2022/05/04 07:51:28;;;;;;;20.83;11.50;;;12.20;99.90;;;;;;5055548;28;20208;-86
2022/05/04 07:53:55;;;;;;;18.33;11.23;;;12.50;99.90;;;;;;5055555;28;20222;-87
2022/05/04 07:56:22;;;;;;;22.83;12.17;;;12.70;99.90;;;;;;5055305;28;20403;-85
2022/05/04 07:58:49;;;;;;;17.23;11.57;;;12.60;99.90;;;;;;5055420;28;20207;-86
2022/05/04 08:04:21;;;;;;;20.57;12.30;;;12.80;99.90;;;;;;5054996;28;20204;-87
2022/05/04 08:06:48;;;;;;;23.10;12.97;;;12.90;99.90;;;;;;5055352;28;20209;-86
2022/05/04 08:09:15;;;;;;;24.37;13.90;;;12.80;99.90;;;;;;5055311;28;20298;-87
2022/05/04 08:11:42;;;;;;;23.70;14.23;;;12.60;99.90;;;;;;5055253;28;20187;-88
2022/05/04 08:14:09;;;;;;;25.90;13.97;;;12.40;99.90;;;;;;5055236;28;20208;-88
2022/05/04 08:16:36;;;;;;;27.03;15.77;;;12.50;99.90;;;;;;5054913;28;20253;-84
2022/05/04 08:19:06;;;;;;;24.13;15.17;;;12.60;99.90;;;;;;5054534;28;20233;-87
2022/05/04 08:21:33;;;;;;;26.13;14.50;;;12.60;99.90;;;;;;5054766;28;20216;-87
2022/05/04 08:24:00;;;;;;;25.13;15.47;;;12.80;99.90;;;;;;5054972;28;20571;-86
2022/05/04 08:26:28;;;;;;;23.17;14.97;;;12.90;99.90;;;;;;5054802;28;20575;-85
2022/05/04 08:28:54;;;;;;;21.60;15.20;;;12.60;99.90;;;;;;5054913;28;20264;-86
2022/05/04 08:31:22;;;;;;;22.63;14.30;;;12.60;99.90;;;;;;5054828;28;20230;-86
2022/05/04 08:33:50;;;;;;;21.40;14.60;;;13.00;99.90;;;;;;5054388;28;20232;-87
2022/05/04 08:36:19;;;;;;;24.57;13.37;;;12.90;99.90;;;;;;5055032;28;20197;-85
2022/05/04 08:38:46;;;;;;;21.93;13.67;;;13.20;99.90;;;;;;5054804;28;20212;-87
2022/05/04 08:41:12;;;;;;;21.17;13.70;;;13.30;99.90;;;;;;5054880;28;20231;-88
2022/05/04 08:43:40;;;;;;;20.23;14.27;;;13.30;99.90;;;;;;5054014;28;20213;-86
2022/05/04 08:46:13;;;;;;;25.30;14.80;;;13.40;99.90;;;;;;5054092;28;20225;-86
2022/05/04 08:48:41;;;;;;;21.10;14.97;;;13.20;99.90;;;;;;5054249;28;20234;-87
2022/05/04 08:51:10;;;;;;;22.10;15.73;;;13.20;99.90;;;;;;5054581;28;20210;-86
2022/05/04 08:53:40;;;;;;;21.77;14.87;;;13.10;99.90;;;;;;5054319;28;20225;-87
2022/05/04 08:56:07;;;;;;;18.17;14.30;;;13.20;99.90;;;;;;5054709;28;20206;-87
2022/05/04 08:58:37;;;;;;;22.17;14.27;;;13.50;99.90;;;;;;5054367;28;20200;-87
2022/05/04 09:01:03;;;;;;;22.70;16.17;;;13.60;99.90;;;;;;5054521;28;20475;-88
2022/05/04 09:03:30;;;;;;;24.00;15.13;;;13.40;99.90;;;;;;5054976;28;20201;-88
2022/05/04 09:05:58;;;;;;;22.67;14.17;;;13.40;99.90;;;;;;5054852;28;20212;-88
2022/05/04 09:08:25;;;;;;;25.17;13.97;;;13.40;99.90;;;;;;5054670;28;20245;-86
2022/05/04 09:10:53;;;;;;;22.00;14.57;;;13.50;99.90;;;;;;5054060;28;20211;-89
2022/05/04 09:13:21;;;;;;;23.97;15.20;;;13.50;99.90;;;;;;5053574;28;20247;-86
2022/05/04 09:15:50;;;;;;;26.93;15.07;;;13.30;99.90;;;;;;5053290;28;20208;-85
2022/05/04 09:18:17;;;;;;;19.57;13.53;;;13.50;99.90;;;;;;5054123;28;20205;-87
2022/05/04 09:20:55;;;;;;;26.33;14.67;;;13.60;99.90;;;;;;5053685;28;20232;-86
2022/05/04 09:23:24;;;;;;;20.57;13.60;;;13.70;99.90;;;;;;5054275;28;20213;-86
2022/05/04 09:25:53;;;;;;;22.27;15.93;;;13.90;99.90;;;;;;5053509;28;20909;-87
2022/05/04 09:28:22;;;;;;;18.60;13.67;;;14.10;99.90;;;;;;5054028;28;20193;-88
2022/05/04 09:30:51;;;;;;;17.60;13.87;;;13.90;99.90;;;;;;5053936;28;20214;-86
2022/05/04 09:33:22;;;;;;;21.20;14.20;;;13.70;99.90;;;;;;5053892;28;20648;-86
2022/05/04 09:35:51;;;;;;;22.30;14.30;;;13.60;99.90;;;;;;5053721;28;20680;-87
2022/05/04 09:46:40;;;;;;;24.90;15.57;;;14.20;99.90;;;;;;5053109;28;20695;-85
2022/05/04 09:49:11;;;;;;;21.73;15.23;;;14.40;99.90;;;;;;5053241;28;20213;-85
2022/05/04 09:51:39;;;;;;;20.80;16.00;;;14.40;99.90;;;;;;5053023;28;20258;-86
2022/05/04 09:54:17;;;;;;;24.90;17.40;;;14.50;99.90;;;;;;5055432;28;20224;-86
2022/05/04 09:56:51;;;;;;;25.30;16.40;;;14.50;99.90;;;;;;5057907;28;20653;-86
2022/05/04 09:59:20;;;;;;;21.60;16.10;;;14.30;99.90;;;;;;5057585;28;20210;-87
2022/05/04 10:01:48;;;;;;;25.57;16.57;;;14.40;99.90;;;;;;5057602;28;20206;-86
2022/05/04 10:04:15;;;;;;;20.43;14.60;;;14.40;99.90;;;;;;5057747;28;20202;-86
2022/05/04 10:06:43;;;;;;;20.97;15.40;;;14.70;99.90;;;;;;5057175;28;20670;-87
2022/05/04 10:09:10;;;;;;;22.47;15.83;;;14.80;99.90;;;;;;5057596;28;20654;-87
2022/05/04 10:11:39;;;;;;;25.00;16.53;;;14.60;99.90;;;;;;5057337;28;20273;-87
2022/05/04 10:14:15;;;;;;;24.10;16.90;;;14.90;99.90;;;;;;5055921;28;20243;-87
2022/05/04 10:16:46;;;;;;;29.43;17.83;;;14.80;99.90;;;;;;5057229;28;20205;-86
2022/05/04 10:19:19;;;;;;;27.03;16.90;;;14.80;99.90;;;;;;5057010;28;20237;-86
2022/05/04 10:21:51;;;;;;;26.27;17.83;;;14.80;99.90;;;;;;5056994;28;20234;-86
2022/05/04 10:24:20;;;;;;;25.87;18.07;;;14.80;99.90;;;;;;5057007;28;20210;-86
2022/05/04 10:26:47;;;;;;;22.70;17.17;;;15.10;99.90;;;;;;5056573;28;20202;-85
2022/05/04 10:32:28;;;;;;;26.03;18.83;;;15.10;99.90;;;;;;5057123;28;20201;-86
2022/05/04 10:35:28;;;;;;;25.73;18.30;;;14.90;99.90;;;;;;5057130;28;20300;-87
2022/05/04 10:38:05;;;;;;;24.70;17.47;;;14.90;99.90;;;;;;5052980;28;20677;-88
2022/05/04 10:40:34;;;;;;;26.20;17.50;;;15.20;99.90;;;;;;5057042;28;20226;-85
2022/05/04 10:43:03;;;;;;;26.37;17.93;;;15.20;99.90;;;;;;5056476;28;20187;-87
2022/05/04 10:45:33;;;;;;;27.00;18.63;;;15.20;99.90;;;;;;5056760;28;20206;-86
2022/05/04 10:48:24;;;;;;;27.10;20.03;;;15.40;99.90;;;;;;5056713;28;20198;-87
2022/05/04 10:50:53;;;;;;;21.73;17.37;;;15.50;99.90;;;;;;5052112;28;20202;-87
2022/05/04 10:53:36;;;;;;;22.07;18.00;;;15.50;99.90;;;;;;5056796;28;20222;-85
2022/05/04 10:56:05;;;;;;;25.83;18.40;;;15.50;99.90;;;;;;5056187;28;20207;-85
2022/05/04 10:58:34;;;;;;;28.63;18.90;;;15.70;99.90;;;;;;5060513;28;20229;-86
2022/05/04 11:01:12;;;;;;;21.70;16.40;;;15.90;99.90;;;;;;5061124;28;20235;-85
2022/05/04 11:03:50;;;;;;;24.13;18.17;;;16.00;99.90;;;;;;5060885;28;20210;-85
2022/05/04 11:06:25;;;;;;;23.43;18.53;;;15.90;99.90;;;;;;5059636;28;20661;-87
2022/05/04 11:08:54;;;;;;;28.50;18.23;;;15.90;99.90;;;;;;5065753;28;20215;-87
2022/05/04 11:11:22;;;;;;;46.57;18.80;;;15.80;99.90;;;;;;5062043;28;20198;-84
2022/05/04 11:13:49;;;;;;;25.53;18.13;;;15.90;99.90;;;;;;5061585;28;20195;-85
2022/05/04 11:16:17;;;;;;;23.77;17.10;;;15.90;99.90;;;;;;5061938;28;20199;-85
2022/05/04 11:18:44;;;;;;;22.13;17.50;;;15.90;99.90;;;;;;5061161;28;20216;-85
2022/05/04 11:21:12;;;;;;;21.73;18.07;;;16.10;99.90;;;;;;5061983;28;20227;-85
2022/05/04 11:23:39;;;;;;;22.73;17.63;;;16.00;99.90;;;;;;5061509;28;20210;-85
2022/05/04 11:26:06;;;;;;;23.03;18.83;;;16.10;99.90;;;;;;5058930;28;20204;-86
2022/05/04 11:28:34;;;;;;;26.43;19.07;;;16.20;99.90;;;;;;5055735;28;20193;-85
2022/05/04 11:31:01;;;;;;;30.17;18.10;;;16.20;99.90;;;;;;5055967;28;20207;-85
2022/05/04 11:33:29;;;;;;;24.23;18.80;;;16.20;99.90;;;;;;5055488;28;20191;-83
2022/05/04 11:35:57;;;;;;;22.33;18.90;;;16.30;99.90;;;;;;5055198;28;20642;-83
2022/05/04 11:38:24;;;;;;;24.30;19.87;;;16.60;99.90;;;;;;5055102;28;20374;-82
2022/05/04 11:40:52;;;;;;;29.10;19.37;;;16.90;99.90;;;;;;5054770;28;20234;-85
2022/05/04 11:43:33;;;;;;;23.37;19.27;;;17.00;99.90;;;;;;5054793;28;20249;-83
2022/05/04 11:46:03;;;;;;;22.17;19.87;;;16.90;99.90;;;;;;5055539;28;20220;-84
2022/05/04 11:48:32;;;;;;;20.97;18.73;;;16.90;99.90;;;;;;5054884;28;20197;-83
2022/05/04 11:50:58;;;;;;;25.53;19.20;;;16.90;99.90;;;;;;5055086;28;20204;-83
2022/05/04 11:53:25;;;;;;;21.63;17.93;;;17.10;99.90;;;;;;5054722;28;20229;-84
2022/05/04 11:55:52;;;;;;;30.43;19.03;;;17.20;99.90;;;;;;5054994;28;20661;-84
2022/05/04 11:58:19;;;;;;;21.77;17.10;;;17.20;99.90;;;;;;5054714;28;20220;-83
2022/05/04 12:00:46;;;;;;;18.37;14.47;;;17.30;99.90;;;;;;5054678;28;20700;-92
2022/05/04 12:03:13;;;;;;;19.43;15.23;;;17.40;99.90;;;;;;5055387;28;20293;-72
2022/05/04 12:05:41;;;;;;;19.40;15.37;;;17.30;99.90;;;;;;5054618;28;20210;-72
2022/05/04 12:08:09;;;;;;;19.50;16.60;;;17.20;99.90;;;;;;5054546;28;20260;-72
2022/05/04 12:10:36;;;;;;;19.93;17.00;;;17.40;99.90;;;;;;5054145;28;20565;-72
2022/05/04 12:13:04;;;;;;;23.80;17.50;;;17.40;99.90;;;;;;5054867;28;20198;-74
2022/05/04 12:15:31;;;;;;;20.53;17.57;;;17.50;99.90;;;;;;5055258;28;20206;-72
2022/05/04 12:18:00;;;;;;;21.67;16.83;;;17.70;99.90;;;;;;5053498;28;20210;-73
2022/05/04 12:20:27;;;;;;;20.90;17.13;;;17.70;99.90;;;;;;5053560;28;20438;-74
2022/05/04 12:22:56;;;;;;;23.70;17.37;;;18.20;99.90;;;;;;5054391;28;20209;-72
2022/05/04 12:25:24;;;;;;;24.07;17.97;;;18.20;99.90;;;;;;5053802;28;20285;-77
2022/05/04 12:27:51;;;;;;;21.00;17.57;;;18.30;99.90;;;;;;5054309;28;20602;-72
2022/05/04 12:33:09;;;;;;;20.90;14.83;;;18.30;99.90;;;;;;5054538;28;20190;-72
2022/05/04 12:35:37;;;;;;;23.60;16.83;;;18.40;99.90;;;;;;5054977;28;20196;-74
2022/05/04 12:38:19;;;;;;;15.97;12.50;;;18.50;99.90;;;;;;5111200;27;21073;-73
2022/05/04 12:40:49;;;;;;;15.87;12.50;;;18.30;99.90;;;;;;5110952;28;20189;-72
2022/05/04 12:43:16;;;;;;;15.73;13.10;;;18.20;99.90;;;;;;5110968;28;20190;-73
2022/05/04 12:45:46;;;;;;;15.60;12.70;;;18.20;99.90;;;;;;5111171;28;20208;-73
2022/05/04 12:48:13;;;;;;;13.00;11.43;;;18.20;99.90;;;;;;5110783;28;20223;-73
2022/05/04 12:50:40;;;;;;;16.50;11.83;;;18.00;99.90;;;;;;5111291;28;20569;-73
2022/05/04 12:53:07;;;;;;;14.57;12.87;;;18.30;99.90;;;;;;5110760;28;20281;-72
2022/05/04 12:58:20;;;;;;;19.80;12.07;;;18.60;99.90;;;;;;5110710;28;20202;-73
2022/05/04 13:00:47;;;;;;;15.20;12.47;;;18.70;99.90;;;;;;5110335;28;20670;-73
2022/05/04 13:03:14;;;;;;;19.70;13.27;;;18.80;99.90;;;;;;5111310;28;20203;-88
2022/05/04 13:05:41;;;;;;;19.50;13.60;;;18.70;99.90;;;;;;5112063;28;20187;-88
2022/05/04 13:08:08;;;;;;;16.30;13.10;;;18.80;99.90;;;;;;5112487;28;20196;-87
2022/05/04 13:10:37;;;;;;;13.80;10.37;;;18.50;99.90;;;;;;5114661;28;20193;-73
2022/05/04 13:13:04;;;;;;;13.77;9.27;;;18.50;99.90;;;;;;5110827;28;20296;-78